Time;durP1;ratioP1;P1;durP2;ratioP2;P2;SDS_P1;SDS_P2;PMS_P1;PMS_P2;Temp;Humidity;BMP_temperature;BMP_pressure;BME280_temperature;BME280_humidity;BME280_pressure;Samples;Min_cycle;Max_cycle;Signal;HPM_P1;HPM_P2
2022/06/16 00:00:28;;;;;;;13.30;4.00;;;22.10;77.30;;;;;;5052664;28;20025;-67
2022/06/16 00:02:53;;;;;;;6.50;3.40;;;22.10;76.80;;;;;;5052805;28;20055;-66
2022/06/16 00:05:23;;;;;;;11.93;3.90;;;22.00;77.00;;;;;;5053817;28;20025;-67
2022/06/16 00:07:50;;;;;;;6.38;3.58;;;22.00;77.40;;;;;;5054064;28;20021;-66
2022/06/16 00:10:16;;;;;;;5.90;3.65;;;21.90;77.40;;;;;;5036352;28;20474;-68
2022/06/16 00:12:42;;;;;;;7.38;3.45;;;21.90;77.30;;;;;;5053341;28;20029;-66
2022/06/16 00:15:12;;;;;;;7.22;3.70;;;21.90;77.20;;;;;;5052628;28;20031;-66
2022/06/16 00:17:38;;;;;;;5.15;3.72;;;21.90;77.20;;;;;;5051377;28;20063;-67
2022/06/16 00:20:05;;;;;;;4.43;3.08;;;21.90;77.30;;;;;;5053757;28;20071;-67
2022/06/16 00:22:32;;;;;;;8.32;4.03;;;21.80;77.40;;;;;;5053267;28;20572;-67
2022/06/16 00:24:58;;;;;;;6.13;3.90;;;21.90;77.30;;;;;;5053741;28;20079;-67
2022/06/16 00:27:23;;;;;;;6.95;3.72;;;21.80;77.40;;;;;;5053751;28;20466;-66
2022/06/16 00:29:49;;;;;;;7.47;3.50;;;21.80;77.60;;;;;;5053420;28;20029;-67
2022/06/16 00:32:15;;;;;;;8.55;3.42;;;21.80;77.80;;;;;;5053575;28;20029;-67
2022/06/16 00:34:41;;;;;;;5.85;3.45;;;21.80;78.80;;;;;;5053223;28;20032;-66
2022/06/16 00:37:06;;;;;;;8.40;3.78;;;21.70;78.40;;;;;;5053670;28;20032;-67
2022/06/16 00:39:32;;;;;;;5.53;3.55;;;21.60;78.60;;;;;;5052294;28;20028;-67
2022/06/16 00:42:07;;;;;;;5.45;3.42;;;21.60;78.80;;;;;;5053506;28;20033;-67
2022/06/16 00:44:33;;;;;;;6.45;3.78;;;21.60;78.50;;;;;;5052557;28;20025;-68
2022/06/16 00:46:59;;;;;;;7.13;4.22;;;21.60;79.60;;;;;;5053080;28;20032;-67
2022/06/16 00:49:27;;;;;;;7.88;4.32;;;21.60;78.70;;;;;;5053519;28;20035;-67
2022/06/16 00:51:56;;;;;;;5.88;3.92;;;21.60;79.00;;;;;;5053527;28;20080;-66
2022/06/16 00:54:27;;;;;;;7.10;3.63;;;21.50;79.20;;;;;;5052837;28;20033;-68
2022/06/16 00:56:58;;;;;;;4.03;3.43;;;21.50;79.20;;;;;;5053000;28;20386;-66
2022/06/16 00:59:24;;;;;;;6.25;4.22;;;21.50;79.40;;;;;;5053278;28;20255;-66
2022/06/16 01:01:50;;;;;;;7.15;4.10;;;21.40;79.60;;;;;;5053213;28;20478;-67
2022/06/16 01:07:04;;;;;;;6.45;3.70;;;21.40;79.70;;;;;;5053439;28;20512;-66
2022/06/16 01:09:32;;;;;;;6.65;4.00;;;21.40;79.60;;;;;;5053176;28;20025;-66
2022/06/16 01:15:14;;;;;;;6.50;4.30;;;21.30;79.90;;;;;;5052007;28;20040;-66
2022/06/16 01:18:17;;;;;;;7.20;4.28;;;21.30;80.20;;;;;;5053020;28;20045;-67
2022/06/16 01:21:00;;;;;;;8.30;4.43;;;21.30;80.00;;;;;;5052904;28;20029;-66
2022/06/16 01:23:50;;;;;;;6.82;4.47;;;21.30;79.80;;;;;;5052566;28;20023;-66
2022/06/16 01:26:49;;;;;;;7.03;4.60;;;21.20;79.80;;;;;;5052446;28;20072;-66
2022/06/16 01:29:52;;;;;;;5.78;4.15;;;21.20;80.00;;;;;;5053050;28;20060;-66
2022/06/16 01:32:32;;;;;;;;;;;21.10;80.00;;;;;;5053244;28;20133;-67
2022/06/16 01:35:22;;;;;;;5.80;4.65;;;21.10;80.00;;;;;;5051384;28;19916;-66
2022/06/16 01:38:12;;;;;;;7.18;5.03;;;21.10;80.00;;;;;;5052674;28;20434;-66
2022/06/16 01:40:50;;;;;;;5.60;4.82;;;21.00;80.40;;;;;;5052269;28;20452;-66
2022/06/16 01:43:21;;;;;;;6.60;4.90;;;21.00;80.30;;;;;;5052653;28;20028;-66
2022/06/16 01:46:01;;;;;;;5.75;4.63;;;20.90;80.30;;;;;;5052558;28;20082;-66
2022/06/16 01:48:29;;;;;;;8.70;5.07;;;21.00;80.50;;;;;;5052708;28;20112;-67
2022/06/16 01:50:59;;;;;;;6.47;5.22;;;21.00;80.60;;;;;;5052551;28;20119;-66
2022/06/16 01:53:49;;;;;;;6.22;4.85;;;20.90;80.60;;;;;;5052483;28;20377;-66
2022/06/16 01:56:29;;;;;;;10.88;5.10;;;20.90;80.70;;;;;;5052112;28;20037;-66
2022/06/16 01:59:02;;;;;;;10.07;6.25;;;20.90;80.80;;;;;;5032755;28;20018;-66
2022/06/16 02:01:34;;;;;;;11.07;5.95;;;20.90;80.90;;;;;;5032671;28;20059;-66
2022/06/16 02:04:07;;;;;;;6.88;5.38;;;20.80;81.00;;;;;;5038237;28;20151;-66
2022/06/16 02:06:37;;;;;;;8.25;6.70;;;20.80;81.20;;;;;;5052765;28;20072;-66
2022/06/16 02:09:17;;;;;;;7.03;6.22;;;20.80;81.10;;;;;;5052650;28;20020;-66
2022/06/16 02:11:44;;;;;;;9.93;6.68;;;20.70;81.20;;;;;;5052485;28;20021;-66
2022/06/16 02:14:33;;;;;;;7.97;6.38;;;20.70;81.20;;;;;;5051823;28;20020;-66
2022/06/16 02:17:01;;;;;;;8.07;6.80;;;20.70;81.50;;;;;;5051850;28;20041;-66
2022/06/16 02:19:27;;;;;;;10.10;6.93;;;20.70;81.20;;;;;;5052623;28;20100;-66
2022/06/16 02:21:54;;;;;;;8.10;7.35;;;20.70;81.00;;;;;;5052307;28;20489;-66
2022/06/16 02:24:22;;;;;;;10.85;7.40;;;20.60;80.70;;;;;;5051740;28;20487;-66
2022/06/16 02:26:49;;;;;;;9.70;6.95;;;20.60;81.50;;;;;;5052329;28;20021;-66
2022/06/16 02:29:37;;;;;;;13.90;7.22;;;20.60;81.10;;;;;;5052505;28;20374;-66
2022/06/16 02:32:31;;;;;;;9.40;5.85;;;20.60;80.90;;;;;;5051870;28;20386;-66
2022/06/16 02:35:22;;;;;;;7.38;6.38;;;20.50;80.80;;;;;;5051226;28;20041;-67
2022/06/16 02:37:52;;;;;;;8.23;7.13;;;20.50;81.00;;;;;;5052930;28;20525;-66
2022/06/16 02:40:49;;;;;;;6.95;6.25;;;20.50;81.00;;;;;;5055734;28;20071;-67
2022/06/16 02:43:44;;;;;;;9.77;6.90;;;20.50;81.30;;;;;;4985773;28;20037;-66
2022/06/16 02:46:16;;;;;;;6.78;6.18;;;20.40;81.30;;;;;;5055319;28;20037;-66
2022/06/16 02:48:57;;;;;;;10.60;6.20;;;20.30;81.20;;;;;;5055779;28;20032;-66
2022/06/16 02:51:36;;;;;;;9.55;6.63;;;20.40;81.20;;;;;;5055530;28;20025;-66
2022/06/16 02:54:21;;;;;;;7.28;6.57;;;20.40;81.10;;;;;;5054881;28;20086;-67
2022/06/16 02:57:10;;;;;;;8.20;6.45;;;20.30;81.10;;;;;;5055572;28;20044;-66
2022/06/16 02:59:45;;;;;;;10.25;6.95;;;20.30;81.60;;;;;;5055339;28;20021;-66
2022/06/16 03:02:15;;;;;;;10.30;6.95;;;20.20;81.40;;;;;;5054594;28;20021;-67
2022/06/16 03:04:50;;;;;;;11.13;6.72;;;20.20;81.10;;;;;;5055448;28;20014;-66
2022/06/16 03:07:16;;;;;;;9.40;6.60;;;20.20;81.70;;;;;;5055457;28;20028;-65
2022/06/16 03:09:42;;;;;;;9.20;7.03;;;20.20;80.70;;;;;;5054858;28;20110;-66
2022/06/16 03:12:10;;;;;;;6.95;6.15;;;20.20;80.70;;;;;;5054644;28;20431;-66
2022/06/16 03:14:35;;;;;;;7.85;6.20;;;20.20;80.70;;;;;;5053750;28;20017;-66
2022/06/16 03:17:02;;;;;;;7.60;6.10;;;20.20;80.30;;;;;;5054115;28;20350;-66
2022/06/16 03:19:28;;;;;;;10.68;5.75;;;20.10;80.20;;;;;;5053498;28;20020;-66
2022/06/16 03:21:54;;;;;;;6.97;6.28;;;20.10;79.80;;;;;;5054067;28;20470;-66
2022/06/16 03:24:21;;;;;;;7.22;6.00;;;20.20;79.50;;;;;;5054823;28;20374;-66
2022/06/16 03:26:47;;;;;;;8.13;5.43;;;20.10;79.40;;;;;;5055153;28;20021;-66
2022/06/16 03:29:12;;;;;;;7.25;5.57;;;20.10;79.40;;;;;;5054965;28;20025;-66
2022/06/16 03:31:38;;;;;;;9.07;5.50;;;20.10;79.50;;;;;;5054695;28;20056;-66
2022/06/16 03:34:04;;;;;;;9.65;5.47;;;20.10;79.40;;;;;;5054665;28;20029;-66
2022/06/16 03:36:30;;;;;;;12.07;6.10;;;20.10;79.40;;;;;;5054645;28;20029;-67
2022/06/16 03:38:55;;;;;;;8.43;5.20;;;20.00;79.50;;;;;;5054750;28;20024;-67
2022/06/16 03:41:21;;;;;;;7.45;5.47;;;19.90;80.00;;;;;;5054206;28;20492;-66
2022/06/16 03:43:46;;;;;;;9.02;5.72;;;19.90;79.90;;;;;;5054549;28;20032;-66
2022/06/16 03:46:12;;;;;;;7.20;4.95;;;20.00;80.50;;;;;;5054635;28;20036;-66
2022/06/16 03:48:38;;;;;;;8.27;5.80;;;19.90;80.30;;;;;;5054198;28;20470;-67
2022/06/16 03:51:05;;;;;;;8.77;5.65;;;19.90;80.70;;;;;;5052992;28;20025;-67
2022/06/16 03:53:32;;;;;;;7.47;5.43;;;19.90;80.10;;;;;;5054489;28;20027;-67
2022/06/16 03:55:57;;;;;;;7.38;5.32;;;19.90;80.10;;;;;;5054184;28;20037;-67
2022/06/16 03:58:23;;;;;;;6.20;5.38;;;19.90;79.80;;;;;;5054161;28;20030;-66
2022/06/16 04:00:49;;;;;;;9.23;5.18;;;19.90;79.80;;;;;;5054129;28;20021;-66
2022/06/16 04:05:58;;;;;;;5.72;4.53;;;19.90;78.40;;;;;;5054158;28;20044;-66
2022/06/16 04:08:24;;;;;;;8.25;4.97;;;19.90;78.70;;;;;;5054259;28;20021;-67
2022/06/16 04:10:49;;;;;;;12.55;5.25;;;19.80;78.90;;;;;;5053357;28;20090;-66
2022/06/16 04:13:16;;;;;;;6.45;5.25;;;19.80;79.20;;;;;;5053400;28;20367;-67
2022/06/16 04:15:41;;;;;;;8.73;5.40;;;19.80;79.10;;;;;;5054103;28;20116;-66
2022/06/16 04:18:07;;;;;;;12.10;5.55;;;19.80;78.70;;;;;;5053791;28;20116;-66
2022/06/16 04:20:33;;;;;;;7.60;4.57;;;19.80;78.30;;;;;;5053432;28;20347;-66
2022/06/16 04:22:59;;;;;;;8.00;5.00;;;19.90;78.20;;;;;;5053981;28;20039;-66
2022/06/16 04:25:32;;;;;;;8.65;4.50;;;19.80;78.00;;;;;;5053802;28;20021;-67
2022/06/16 04:28:03;;;;;;;10.02;4.75;;;19.80;78.30;;;;;;5053588;28;20040;-66
2022/06/16 04:30:29;;;;;;;6.00;4.82;;;19.70;78.30;;;;;;5035459;28;20446;-66
2022/06/16 04:32:57;;;;;;;6.00;4.57;;;19.80;78.00;;;;;;5053834;28;20025;-67
2022/06/16 04:35:23;;;;;;;8.00;4.68;;;19.70;77.70;;;;;;5053362;28;20416;-68
2022/06/16 04:37:48;;;;;;;6.07;4.60;;;19.70;77.50;;;;;;5053719;28;20053;-66
2022/06/16 04:40:14;;;;;;;6.68;4.50;;;19.70;77.30;;;;;;5052954;28;20036;-66
2022/06/16 04:42:39;;;;;;;6.05;4.68;;;19.70;77.50;;;;;;5053429;28;20112;-66
2022/06/16 04:45:06;;;;;;;7.65;4.53;;;19.70;77.20;;;;;;5053527;28;20458;-66
2022/06/16 04:47:31;;;;;;;5.47;3.97;;;19.70;77.00;;;;;;5053604;28;20086;-67
2022/06/16 04:49:57;;;;;;;6.88;4.63;;;19.80;77.30;;;;;;5052680;28;20025;-67
2022/06/16 04:52:23;;;;;;;6.47;4.05;;;19.90;77.10;;;;;;5053687;28;20032;-66
2022/06/16 04:54:49;;;;;;;5.75;3.92;;;19.90;76.80;;;;;;5053379;28;20096;-66
2022/06/16 04:57:15;;;;;;;6.20;3.53;;;20.00;76.60;;;;;;5052623;28;20037;-66
2022/06/16 04:59:41;;;;;;;5.65;3.42;;;19.90;76.60;;;;;;5053284;28;20163;-66
2022/06/16 05:02:08;;;;;;;5.53;3.83;;;19.90;76.60;;;;;;5051192;28;20194;-67
2022/06/16 05:04:35;;;;;;;5.68;3.58;;;20.00;76.50;;;;;;5048906;28;20021;-66
2022/06/16 05:07:01;;;;;;;10.45;4.00;;;20.00;76.50;;;;;;5052674;28;20032;-66
2022/06/16 05:09:28;;;;;;;5.25;3.80;;;20.00;76.30;;;;;;5053294;28;20025;-66
2022/06/16 05:11:54;;;;;;;6.53;4.20;;;20.10;76.30;;;;;;5052932;28;20102;-66
2022/06/16 05:14:20;;;;;;;6.32;4.28;;;20.10;76.30;;;;;;5052825;28;20481;-66
2022/06/16 05:16:47;;;;;;;7.30;4.43;;;20.10;76.40;;;;;;5052440;28;20045;-66
2022/06/16 05:19:13;;;;;;;5.35;3.70;;;20.10;76.90;;;;;;5052431;28;20036;-65
2022/06/16 05:21:39;;;;;;;6.10;3.78;;;20.10;76.20;;;;;;5052910;28;20029;-66
2022/06/16 05:24:05;;;;;;;8.65;4.70;;;20.20;76.10;;;;;;5052981;28;20096;-66
2022/06/16 05:26:30;;;;;;;7.07;4.65;;;20.20;76.30;;;;;;5052460;28;20067;-66
2022/06/16 05:28:56;;;;;;;10.75;5.13;;;20.20;77.30;;;;;;5050147;28;20021;-72
2022/06/16 05:31:23;;;;;;;7.95;4.45;;;20.20;76.50;;;;;;5049955;28;20029;-66
2022/06/16 05:33:49;;;;;;;7.03;4.93;;;20.30;76.70;;;;;;5048381;28;20032;-66
2022/06/16 05:36:17;;;;;;;6.78;5.38;;;20.30;76.70;;;;;;5040023;28;20112;-66
2022/06/16 05:38:43;;;;;;;11.02;5.55;;;20.40;76.40;;;;;;5051148;28;20021;-66
2022/06/16 05:41:13;;;;;;;8.57;5.80;;;20.50;76.30;;;;;;5050384;28;20108;-68
2022/06/16 05:43:39;;;;;;;10.98;5.70;;;20.60;76.00;;;;;;5047994;28;20021;-66
2022/06/16 05:46:07;;;;;;;10.65;6.63;;;20.80;76.20;;;;;;5048980;28;20046;-67
2022/06/16 05:48:33;;;;;;;15.48;4.78;;;20.80;76.00;;;;;;5048988;28;20033;-67
2022/06/16 05:51:04;;;;;;;10.80;6.05;;;21.00;76.10;;;;;;5048584;28;20051;-67
2022/06/16 05:53:30;;;;;;;8.27;5.05;;;21.10;74.50;;;;;;5039773;28;20030;-67
2022/06/16 05:55:56;;;;;;;6.95;4.80;;;21.20;74.20;;;;;;5050581;28;20156;-67
2022/06/16 05:58:21;;;;;;;11.32;4.90;;;21.30;73.70;;;;;;5051930;28;20029;-67
2022/06/16 06:00:47;;;;;;;11.48;5.32;;;21.30;73.10;;;;;;5051474;28;20549;-67
2022/06/16 06:03:13;;;;;;;8.95;4.75;;;21.50;72.50;;;;;;5046472;28;20048;-68
2022/06/16 06:05:40;;;;;;;10.07;5.32;;;21.60;72.40;;;;;;5043993;28;20036;-68
2022/06/16 06:16:35;;;;;;;9.45;5.18;;;21.80;72.00;;;;;;5035501;28;20044;-70
2022/06/16 06:19:23;;;;;;;11.00;4.90;;;21.90;71.60;;;;;;5036055;28;20022;-71
2022/06/16 06:22:00;;;;;;;7.13;5.40;;;22.00;71.50;;;;;;5052118;28;20500;-70
2022/06/16 06:24:49;;;;;;;9.80;4.43;;;22.10;70.60;;;;;;5055061;28;20474;-70
2022/06/16 06:27:25;;;;;;;9.00;4.80;;;22.20;70.90;;;;;;5053637;28;20028;-69
2022/06/16 06:29:51;;;;;;;9.43;4.97;;;22.20;71.10;;;;;;5053819;28;20040;-69
2022/06/16 06:32:19;;;;;;;9.68;4.90;;;22.30;69.90;;;;;;5046997;28;20509;-70
2022/06/16 06:34:45;;;;;;;9.18;5.47;;;22.40;69.80;;;;;;5051678;28;20029;-70
2022/06/16 06:37:13;;;;;;;9.77;5.30;;;22.70;68.40;;;;;;5053133;28;20489;-70
2022/06/16 06:39:40;;;;;;;9.80;5.00;;;22.70;69.00;;;;;;5033617;28;20163;-70
2022/06/16 06:42:05;;;;;;;8.15;4.90;;;22.80;68.20;;;;;;5048881;28;20036;-72
2022/06/16 06:44:31;;;;;;;10.80;4.68;;;22.80;67.70;;;;;;5053553;28;20381;-70
2022/06/16 06:46:57;;;;;;;9.07;4.97;;;22.90;69.10;;;;;;5054430;28;20033;-71
2022/06/16 06:49:23;;;;;;;9.15;4.65;;;22.90;68.50;;;;;;5053321;28;20026;-71
2022/06/16 06:51:48;;;;;;;8.82;4.00;;;23.00;68.10;;;;;;5023325;28;20079;-71
2022/06/16 06:54:14;;;;;;;7.53;3.92;;;23.00;68.40;;;;;;5035762;28;20029;-71
2022/06/16 06:56:40;;;;;;;10.82;4.05;;;23.10;68.10;;;;;;5049227;28;20124;-70
2022/06/16 06:59:13;;;;;;;9.68;3.60;;;23.10;68.10;;;;;;5051312;28;20478;-71
2022/06/16 07:01:39;;;;;;;8.60;4.65;;;23.10;68.60;;;;;;5035334;28;20103;-71
2022/06/16 07:04:05;;;;;;;5.93;3.60;;;23.20;68.20;;;;;;5050022;28;20130;-69
2022/06/16 07:06:30;;;;;;;6.15;2.90;;;23.30;64.70;;;;;;5051770;28;20029;-70
2022/06/16 07:08:56;;;;;;;9.32;3.50;;;23.40;65.10;;;;;;5051403;28;20065;-72
2022/06/16 07:11:22;;;;;;;6.10;3.50;;;23.50;63.70;;;;;;5052125;28;20051;-72
2022/06/16 07:13:48;;;;;;;7.53;2.95;;;23.60;63.60;;;;;;5052249;28;20033;-71
2022/06/16 07:16:13;;;;;;;7.03;4.03;;;23.70;64.20;;;;;;5054576;28;20045;-71
2022/06/16 07:18:39;;;;;;;5.40;3.45;;;23.80;62.80;;;;;;5054790;28;20033;-72
2022/06/16 07:21:05;;;;;;;10.93;3.30;;;24.00;62.50;;;;;;5053062;28;20025;-69
2022/06/16 07:23:32;;;;;;;7.07;3.10;;;24.10;61.90;;;;;;5044386;28;20553;-72
2022/06/16 07:25:58;;;;;;;8.15;3.13;;;24.20;62.10;;;;;;5054991;28;20051;-72
2022/06/16 07:28:24;;;;;;;6.97;3.63;;;24.30;61.30;;;;;;5054478;28;20056;-71
2022/06/16 07:30:49;;;;;;;7.93;3.22;;;24.30;60.80;;;;;;5054633;28;20542;-71
2022/06/16 07:33:15;;;;;;;8.93;2.83;;;24.40;60.90;;;;;;5047041;28;20021;-71
2022/06/16 07:35:43;;;;;;;5.50;2.70;;;24.30;61.80;;;;;;5051259;28;20442;-70
2022/06/16 07:38:12;;;;;;;7.78;3.40;;;24.30;62.50;;;;;;5052932;28;20483;-72
2022/06/16 07:40:39;;;;;;;7.57;3.10;;;24.30;62.20;;;;;;5053196;28;20056;-71
2022/06/16 07:43:06;;;;;;;10.43;3.40;;;24.40;62.20;;;;;;5053080;28;20099;-71
2022/06/16 07:45:34;;;;;;;10.43;3.55;;;24.50;62.50;;;;;;5048637;28;20021;-71
2022/06/16 07:48:01;;;;;;;8.52;2.65;;;24.60;61.60;;;;;;5034593;28;20076;-71
2022/06/16 07:50:27;;;;;;;7.32;2.83;;;24.60;61.90;;;;;;5052890;28;20474;-71
2022/06/16 07:52:52;;;;;;;7.22;3.15;;;24.60;61.70;;;;;;5052715;28;20040;-70
2022/06/16 07:55:18;;;;;;;11.55;3.20;;;24.60;62.00;;;;;;5054214;28;20473;-71
2022/06/16 07:57:49;;;;;;;4.88;2.97;;;24.70;61.70;;;;;;5039773;28;20021;-71
2022/06/16 08:00:21;;;;;;;7.20;2.75;;;24.80;61.80;;;;;;5035670;28;20100;-71
2022/06/16 08:02:47;;;;;;;6.03;3.45;;;24.70;62.20;;;;;;5044328;28;20018;-71
2022/06/16 08:05:13;;;;;;;10.18;4.40;;;24.80;61.90;;;;;;5050150;28;20112;-71
2022/06/16 08:07:40;;;;;;;5.80;3.15;;;24.90;60.90;;;;;;5052732;28;20033;-71
2022/06/16 08:10:08;;;;;;;7.38;3.78;;;25.00;61.30;;;;;;5051608;28;20406;-73
2022/06/16 08:12:34;;;;;;;8.20;3.50;;;25.00;61.60;;;;;;5052313;28;20082;-72
2022/06/16 08:15:00;;;;;;;8.15;4.03;;;25.00;61.80;;;;;;5053033;28;20035;-73
2022/06/16 08:17:30;;;;;;;7.38;3.88;;;24.90;62.50;;;;;;5051860;28;20494;-72
2022/06/16 08:19:56;;;;;;;6.47;4.40;;;25.00;61.90;;;;;;5050278;28;20021;-72
2022/06/16 08:22:26;;;;;;;6.88;3.63;;;25.30;60.30;;;;;;5041729;28;20032;-72
2022/06/16 08:24:51;;;;;;;8.15;4.07;;;25.30;60.10;;;;;;5035136;28;20025;-70
2022/06/16 08:27:19;;;;;;;11.85;4.65;;;25.30;60.30;;;;;;5045607;28;20037;-73
2022/06/16 08:29:45;;;;;;;8.05;3.60;;;25.60;58.40;;;;;;5044448;28;20036;-71
2022/06/16 08:32:15;;;;;;;9.85;4.40;;;25.50;59.20;;;;;;5051008;28;20029;-69
2022/06/16 08:34:40;;;;;;;10.55;4.25;;;25.60;57.90;;;;;;5018779;28;20037;-71
2022/06/16 08:37:06;;;;;;;6.13;3.35;;;25.70;58.20;;;;;;5051339;28;20082;-73
2022/06/16 08:39:32;;;;;;;8.95;4.47;;;25.40;60.30;;;;;;5051826;28;20036;-71
2022/06/16 08:42:04;;;;;;;7.53;3.70;;;25.50;58.20;;;;;;5050773;28;20173;-72
2022/06/16 08:44:40;;;;;;;6.90;3.45;;;25.70;57.40;;;;;;5049334;28;20021;-71
2022/06/16 08:47:10;;;;;;;8.93;3.67;;;25.80;55.30;;;;;;5044466;28;20017;-72
2022/06/16 08:49:56;;;;;;;7.82;2.33;;;25.80;55.70;;;;;;5042920;28;20523;-72
2022/06/16 08:52:32;;;;;;;8.02;3.67;;;25.60;56.50;;;;;;5041353;28;20102;-71
2022/06/16 08:55:17;;;;;;;13.48;3.47;;;25.80;56.10;;;;;;5040902;28;20102;-74
2022/06/16 08:58:00;;;;;;;6.97;2.53;;;25.80;56.70;;;;;;5050465;28;20280;-75
2022/06/16 09:00:35;;;;;;;13.07;3.30;;;25.60;59.50;;;;;;5045424;28;20021;-73
2022/06/16 09:03:09;;;;;;;10.85;2.75;;;25.50;60.90;;;;;;5048371;28;20482;-71
2022/06/16 09:06:13;;;;;;;7.75;2.45;;;25.50;58.60;;;;;;5045332;28;20513;-72
2022/06/16 09:08:41;;;;;;;9.50;2.30;;;25.40;60.40;;;;;;5028524;28;20497;-72
2022/06/16 09:11:39;;;;;;;9.75;2.45;;;25.30;58.60;;;;;;5040711;28;20060;-72
2022/06/16 09:17:58;;;;;;;6.57;1.85;;;25.20;58.70;;;;;;5045221;28;20052;-72
2022/06/16 09:20:43;;;;;;;8.63;2.00;;;25.30;57.90;;;;;;5047545;28;20025;-73
2022/06/16 09:23:16;;;;;;;10.82;2.08;;;25.20;58.40;;;;;;5047510;28;20086;-72
2022/06/16 09:26:24;;;;;;;6.40;1.90;;;25.30;56.30;;;;;;5043145;28;20421;-70
2022/06/16 09:29:00;;;;;;;5.35;1.90;;;25.40;57.90;;;;;;5043280;28;20051;-70
2022/06/16 09:31:40;;;;;;;13.10;2.95;;;25.30;58.30;;;;;;5049446;28;20512;-71
2022/06/16 09:34:20;;;;;;;7.80;3.67;;;25.20;59.30;;;;;;5045401;28;20044;-69
2022/06/16 09:36:56;;;;;;;9.07;2.40;;;25.30;56.80;;;;;;5044636;28;20040;-70
2022/06/16 09:39:21;;;;;;;9.98;3.88;;;25.20;58.40;;;;;;5040231;28;20151;-70
2022/06/16 09:44:58;;;;;;;4.07;2.60;;;25.60;55.40;;;;;;5050190;28;20124;-73
2022/06/16 09:47:31;;;;;;;5.05;2.30;;;25.60;55.40;;;;;;5050204;28;20090;-71
2022/06/16 09:50:23;;;;;;;8.27;3.25;;;25.70;53.20;;;;;;5055713;28;20045;-70
2022/06/16 09:52:54;;;;;;;8.55;2.53;;;25.70;54.10;;;;;;5026920;28;20053;-69
2022/06/16 09:55:35;;;;;;;12.82;2.80;;;25.70;54.10;;;;;;5045315;28;20052;-72
2022/06/16 09:58:14;;;;;;;10.63;2.67;;;25.60;55.60;;;;;;5040666;28;20025;-72
2022/06/16 10:00:40;;;;;;;6.63;2.08;;;25.50;56.10;;;;;;5048602;28;20074;-75
2022/06/16 10:03:24;;;;;;;8.05;2.53;;;25.50;56.00;;;;;;5049531;28;20035;-74
2022/06/16 10:06:22;;;;;;;6.47;2.08;;;25.50;55.60;;;;;;5052614;28;20037;-73
2022/06/16 10:09:25;;;;;;;4.28;1.73;;;25.60;53.10;;;;;;5052246;28;20117;-73
2022/06/16 10:11:57;;;;;;;10.75;2.75;;;25.70;53.00;;;;;;5048493;28;20029;-73
2022/06/16 10:14:52;;;;;;;9.27;2.60;;;25.70;52.40;;;;;;5035421;28;20025;-73
2022/06/16 10:17:21;;;;;;;5.55;2.30;;;25.70;52.20;;;;;;5046821;28;20139;-74
2022/06/16 10:19:47;;;;;;;8.93;2.42;;;25.70;51.50;;;;;;5055709;28;20029;-73
2022/06/16 10:22:19;;;;;;;4.60;2.30;;;25.60;52.00;;;;;;5054715;28;20025;-73
2022/06/16 10:24:47;;;;;;;3.08;1.80;;;25.60;51.60;;;;;;5052216;28;20062;-73
2022/06/16 10:27:16;;;;;;;7.53;1.95;;;25.70;51.60;;;;;;5053540;28;20593;-74
2022/06/16 10:30:00;;;;;;;5.22;1.80;;;25.60;52.70;;;;;;5030111;28;20033;-74
2022/06/16 10:32:42;;;;;;;10.32;1.88;;;25.70;51.50;;;;;;5054246;28;20051;-72
2022/06/16 10:35:18;;;;;;;5.15;1.98;;;25.50;57.00;;;;;;5049414;28;20068;-74
2022/06/16 10:37:46;;;;;;;5.95;2.38;;;25.50;51.90;;;;;;5052400;28;20032;-73
2022/06/16 10:40:23;;;;;;;6.32;2.60;;;25.50;51.30;;;;;;5050802;28;20445;-74
2022/06/16 10:43:14;;;;;;;4.38;2.03;;;25.60;51.10;;;;;;5035843;28;20036;-73
2022/06/16 10:45:40;;;;;;;5.97;2.70;;;25.60;51.90;;;;;;5050921;28;20075;-74
2022/06/16 10:48:18;;;;;;;4.00;2.08;;;25.60;50.90;;;;;;5050721;28;20061;-74
2022/06/16 10:50:56;;;;;;;9.68;1.83;;;25.60;51.30;;;;;;5053406;28;20071;-73
2022/06/16 10:53:31;;;;;;;6.40;2.05;;;25.60;52.90;;;;;;5053624;28;20029;-74
2022/06/16 10:56:10;;;;;;;6.75;1.75;;;25.50;52.90;;;;;;5046851;28;20029;-73
2022/06/16 10:59:01;;;;;;;5.28;2.13;;;25.50;54.00;;;;;;5048719;28;20033;-73
2022/06/16 11:01:40;;;;;;;6.07;2.45;;;25.50;52.10;;;;;;5042259;28;20041;-73
2022/06/16 11:04:13;;;;;;;7.28;2.30;;;25.50;51.60;;;;;;5053646;28;20067;-74
2022/06/16 11:06:45;;;;;;;6.65;2.17;;;25.50;51.30;;;;;;5051538;28;20501;-73
2022/06/16 11:09:17;;;;;;;5.32;2.15;;;25.50;52.30;;;;;;5051912;28;20044;-73
2022/06/16 11:11:52;;;;;;;;;;;25.50;51.60;;;;;;5052283;28;20048;-74
2022/06/16 11:14:22;;;;;;;4.43;2.00;;;25.50;51.90;;;;;;5050669;28;19912;-73
2022/06/16 11:16:51;;;;;;;5.40;2.28;;;25.50;52.30;;;;;;5053605;28;20517;-73
2022/06/16 11:19:51;;;;;;;5.90;3.00;;;25.50;52.90;;;;;;5049995;28;20432;-73
2022/06/16 11:22:27;;;;;;;6.43;2.60;;;25.50;53.60;;;;;;5000659;28;20041;-72
2022/06/16 11:24:55;;;;;;;8.70;2.08;;;25.50;53.50;;;;;;5050356;28;20025;-73
2022/06/16 11:27:20;;;;;;;7.18;2.00;;;25.30;58.10;;;;;;5048379;28;20037;-73
2022/06/16 11:29:46;;;;;;;6.93;2.85;;;25.40;54.20;;;;;;5031449;28;20483;-72
2022/06/16 11:32:22;;;;;;;4.32;2.65;;;25.40;52.90;;;;;;5031461;28;20022;-71
2022/06/16 11:34:48;;;;;;;8.52;2.42;;;25.40;53.20;;;;;;5041036;28;20021;-73
2022/06/16 11:37:31;;;;;;;6.53;2.22;;;25.40;53.50;;;;;;5048024;28;20273;-72
2022/06/16 11:39:59;;;;;;;5.35;1.85;;;25.50;52.70;;;;;;5052257;28;20040;-72
2022/06/16 11:42:24;;;;;;;5.72;2.03;;;25.40;55.10;;;;;;5049004;28;20031;-72
2022/06/16 11:45:01;;;;;;;4.57;1.80;;;25.40;55.00;;;;;;5049386;28;20108;-69
2022/06/16 11:47:40;;;;;;;5.40;2.00;;;25.50;53.00;;;;;;5047886;28;20069;-72
2022/06/16 11:50:13;;;;;;;6.50;2.20;;;25.50;53.90;;;;;;5043490;28;20067;-69
2022/06/16 11:52:47;;;;;;;5.32;2.33;;;25.40;53.00;;;;;;5053097;28;20100;-71
2022/06/16 11:55:32;;;;;;;4.95;2.10;;;25.50;52.90;;;;;;5048407;28;20025;-70
2022/06/16 11:58:22;;;;;;;6.10;2.05;;;25.30;57.40;;;;;;5040325;28;20482;-76
2022/06/16 12:00:56;;;;;;;5.68;1.67;;;25.40;52.20;;;;;;5051159;28;20017;-74
2022/06/16 12:03:35;;;;;;;4.10;2.25;;;25.40;54.10;;;;;;5052410;28;20025;-73
2022/06/16 12:06:25;;;;;;;4.32;2.15;;;25.40;52.30;;;;;;5033266;28;20047;-73
2022/06/16 12:08:54;;;;;;;6.50;2.30;;;25.40;52.00;;;;;;5021369;28;20128;-75
2022/06/16 12:11:39;;;;;;;3.47;1.98;;;25.40;52.00;;;;;;5027885;28;20021;-75
2022/06/16 12:14:23;;;;;;;6.15;1.77;;;25.50;54.40;;;;;;5051316;28;20043;-76
2022/06/16 12:17:16;;;;;;;6.60;1.90;;;25.30;58.90;;;;;;5045067;28;20049;-76
2022/06/16 12:20:02;;;;;;;6.68;2.30;;;25.30;57.90;;;;;;5019622;28;20033;-74
2022/06/16 12:22:38;;;;;;;3.63;2.13;;;25.40;52.70;;;;;;5052194;28;20044;-74
2022/06/16 12:25:13;;;;;;;10.48;2.30;;;25.50;52.60;;;;;;5051506;28;20457;-74
2022/06/16 12:28:18;;;;;;;7.07;2.28;;;25.40;51.90;;;;;;5020436;28;20033;-75
2022/06/16 12:31:13;;;;;;;6.35;2.00;;;25.40;51.90;;;;;;5015321;28;20032;-75
2022/06/16 12:33:57;;;;;;;4.47;2.33;;;25.40;52.60;;;;;;5080947;27;1228362;-69
2022/06/16 12:36:52;;;;;;;9.30;2.47;;;25.50;53.80;;;;;;5095698;28;20028;-68
2022/06/16 12:39:17;;;;;;;6.00;2.10;;;25.50;52.80;;;;;;5080404;28;20028;-69
2022/06/16 12:41:50;;;;;;;10.70;2.00;;;25.30;57.80;;;;;;5079247;28;20032;-69
2022/06/16 12:44:24;;;;;;;4.20;1.90;;;25.30;56.70;;;;;;5079724;28;20396;-70
2022/06/16 12:47:13;;;;;;;3.38;1.67;;;25.40;52.30;;;;;;5085616;28;20082;-69
2022/06/16 12:50:01;;;;;;;4.55;1.83;;;25.40;52.00;;;;;;5072462;28;20051;-70
2022/06/16 12:52:30;;;;;;;7.20;2.20;;;25.50;53.30;;;;;;5082250;28;20029;-69
2022/06/16 12:55:19;;;;;;;7.70;2.10;;;25.50;52.50;;;;;;5079548;28;20020;-70
2022/06/16 12:57:53;;;;;;;3.35;1.48;;;25.50;52.20;;;;;;5069418;28;20036;-69
2022/06/16 13:00:20;;;;;;;4.90;2.17;;;25.50;52.70;;;;;;5076914;28;20030;-69
2022/06/16 13:03:01;;;;;;;2.53;1.70;;;25.50;52.20;;;;;;5069384;28;20029;-70
2022/06/16 13:05:29;;;;;;;9.13;2.03;;;25.50;52.90;;;;;;5082617;28;20032;-70
2022/06/16 13:07:57;;;;;;;4.25;1.90;;;25.50;53.00;;;;;;5081674;28;20111;-70
2022/06/16 13:10:24;;;;;;;5.03;1.70;;;25.50;54.20;;;;;;5085744;28;20017;-70
2022/06/16 13:12:55;;;;;;;6.65;2.08;;;25.40;52.60;;;;;;5071152;28;20062;-69
2022/06/16 13:15:31;;;;;;;9.80;2.13;;;25.50;52.70;;;;;;5100747;28;20052;-70
2022/06/16 13:18:13;;;;;;;6.10;1.77;;;25.50;53.00;;;;;;5087624;28;20040;-70
2022/06/16 13:20:40;;;;;;;6.15;2.10;;;25.60;53.10;;;;;;5081586;28;20457;-68
2022/06/16 13:23:09;;;;;;;7.90;2.22;;;25.50;53.50;;;;;;5077193;28;20461;-70
2022/06/16 13:25:42;;;;;;;7.38;2.17;;;25.60;53.10;;;;;;5074556;28;20466;-70
2022/06/16 13:28:16;;;;;;;3.53;2.00;;;25.60;53.00;;;;;;5076391;28;20103;-70
2022/06/16 13:30:59;;;;;;;3.72;1.60;;;25.60;52.70;;;;;;5069494;28;20029;-69
2022/06/16 13:33:43;;;;;;;5.30;2.00;;;25.50;55.00;;;;;;5075891;28;20040;-70
2022/06/16 13:36:16;;;;;;;3.90;1.73;;;25.50;55.90;;;;;;5078147;28;20036;-69